Terminal Aerodrome Forecast
Issued by NWS

Home | Current Version | Previous Version | Graphics & Text | Print | Product List | Glossary On
Versions: 1 2 3 4 5 6 7 8 9 10 11 12 13 14 15 16 17 18 19 20 21 22 23 24 25 26 27 28 29 30
000
FTUS43 KLSX 171500 AAB
TAFSUS
TAF AMD
KSUS 171503Z 1715/1812 30005KT 6SM BR VCSH OVC005
     FM171800 32006KT P6SM OVC008
     FM180300 32005KT 4SM BR SCT035
     FM180800 32003KT 2SM BR SCT025=

USA.gov is the U.S. government's official web portal to all federal, state and local government web resources and services.